Time;durP1;ratioP1;P1;durP2;ratioP2;P2;SDS_P1;SDS_P2;PMS_P1;PMS_P2;Temp;Humidity;BMP_temperature;BMP_pressure;BME280_temperature;BME280_humidity;BME280_pressure;Samples;Min_cycle;Max_cycle;Signal;HPM_P1;HPM_P2
2023/01/21 00:00:57;;;;;;;42.55;26.02;;;0.30;99.90;;;;;;5038365;28;20396;-80
2023/01/21 00:03:23;;;;;;;41.55;26.27;;;0.20;99.90;;;;;;5021658;28;20046;-80
2023/01/21 00:05:49;;;;;;;42.95;25.70;;;0.20;99.90;;;;;;5037887;28;20540;-80
2023/01/21 00:08:15;;;;;;;43.13;26.42;;;0.30;99.90;;;;;;5037799;28;20049;-80
2023/01/21 00:10:41;;;;;;;44.22;26.42;;;0.20;99.90;;;;;;5029851;28;20037;-81
2023/01/21 00:13:07;;;;;;;45.97;27.00;;;1.10;99.90;;;;;;5016612;28;20054;-82
2023/01/21 00:15:34;;;;;;;44.20;26.25;;;0.20;99.90;;;;;;5047486;28;20059;-80
2023/01/21 00:18:00;;;;;;;44.13;25.65;;;0.10;99.90;;;;;;5037807;28;20048;-80
2023/01/21 00:20:25;;;;;;;43.95;27.38;;;0.10;99.90;;;;;;5040471;28;20048;-80
2023/01/21 00:22:54;;;;;;;40.80;25.45;;;1.30;99.90;;;;;;5045410;28;20056;-80
2023/01/21 00:25:20;;;;;;;49.35;27.98;;;0.10;99.90;;;;;;5018710;28;20042;-81
2023/01/21 00:27:46;;;;;;;42.10;26.17;;;0.10;99.90;;;;;;5023036;28;20045;-81
2023/01/21 00:30:13;;;;;;;49.22;26.90;;;0.00;99.90;;;;;;5036681;28;20052;-81
2023/01/21 00:32:38;;;;;;;42.35;25.95;;;0.10;99.90;;;;;;5055730;28;20140;-81
2023/01/21 00:35:05;;;;;;;41.10;25.83;;;0.00;99.90;;;;;;5021568;28;20041;-81
2023/01/21 00:37:31;;;;;;;43.42;26.65;;;0.00;99.90;;;;;;5055624;28;20056;-81
2023/01/21 00:39:57;;;;;;;48.47;27.92;;;-0.10;99.90;;;;;;5049461;28;20033;-81
2023/01/21 00:42:22;;;;;;;46.72;28.27;;;-0.10;99.90;;;;;;5018002;28;20099;-81
2023/01/21 00:44:48;;;;;;;48.35;27.67;;;-0.10;99.90;;;;;;5017702;28;20494;-81
2023/01/21 00:47:14;;;;;;;47.38;27.33;;;-0.10;99.90;;;;;;5017692;28;20168;-80
2023/01/21 00:49:39;;;;;;;44.03;27.67;;;-0.10;99.90;;;;;;5036923;28;20048;-80
2023/01/21 00:52:05;;;;;;;45.65;28.20;;;-0.20;99.90;;;;;;5035815;28;20052;-81
2023/01/21 00:54:31;;;;;;;46.85;28.63;;;-0.10;99.90;;;;;;5036747;28;20098;-81
2023/01/21 00:56:59;;;;;;;47.45;27.50;;;-0.20;99.90;;;;;;5054645;28;20134;-81
2023/01/21 00:59:27;;;;;;;45.00;27.60;;;-0.20;99.90;;;;;;5052394;28;20121;-81
2023/01/21 01:01:53;;;;;;;50.17;28.73;;;-0.20;99.90;;;;;;5018805;28;20089;-80
2023/01/21 01:04:19;;;;;;;47.67;27.48;;;-0.20;99.90;;;;;;5034567;28;20041;-81
2023/01/21 01:06:45;;;;;;;45.58;27.45;;;-0.20;99.90;;;;;;5017447;28;20511;-81
2023/01/21 01:09:11;;;;;;;51.38;28.90;;;-0.20;99.90;;;;;;5017154;28;20053;-81
2023/01/21 01:11:37;;;;;;;48.45;27.85;;;-0.10;99.90;;;;;;5043732;28;20040;-81
2023/01/21 01:14:04;;;;;;;46.90;28.73;;;-0.20;99.90;;;;;;5052523;28;20111;-80
2023/01/21 01:16:29;;;;;;;51.45;28.60;;;-0.20;99.90;;;;;;5043817;28;20072;-81
2023/01/21 01:18:56;;;;;;;50.90;29.30;;;-0.30;99.90;;;;;;5035710;28;20497;-81
2023/01/21 01:21:22;;;;;;;51.30;29.48;;;-0.30;99.90;;;;;;5021095;28;20406;-80
2023/01/21 01:23:51;;;;;;;51.92;30.33;;;-0.30;99.90;;;;;;5026911;28;20079;-81
2023/01/21 01:26:18;;;;;;;45.15;26.45;;;-0.30;99.90;;;;;;5009227;28;20076;-81
2023/01/21 01:28:44;;;;;;;50.42;29.90;;;-0.30;99.90;;;;;;5036609;28;20048;-80
2023/01/21 01:31:13;;;;;;;51.35;29.33;;;-0.30;99.90;;;;;;5038992;28;20037;-80
2023/01/21 01:33:38;;;;;;;49.25;29.48;;;0.60;99.90;;;;;;5034372;28;20399;-80
2023/01/21 01:36:07;;;;;;;50.33;28.33;;;-0.40;99.90;;;;;;5034763;28;20041;-81
2023/01/21 01:38:33;;;;;;;49.20;28.70;;;-0.40;99.90;;;;;;5016741;28;20089;-81
2023/01/21 01:40:59;;;;;;;49.50;28.17;;;-0.40;99.90;;;;;;5034623;28;20053;-81
2023/01/21 01:43:46;;;;;;;48.63;28.00;;;-0.40;99.90;;;;;;5050553;28;20393;-81
2023/01/21 01:46:12;;;;;;;;;;;-0.40;99.90;;;;;;5036533;28;20060;-81
2023/01/21 01:48:38;;;;;;;51.17;29.42;;;-0.40;99.90;;;;;;5016284;28;20377;-81
2023/01/21 01:51:06;;;;;;;52.15;29.67;;;-0.40;99.90;;;;;;5032936;28;20045;-80
2023/01/21 01:53:33;;;;;;;50.55;28.98;;;-0.40;99.90;;;;;;5016232;28;20045;-80
2023/01/21 01:55:59;;;;;;;49.05;28.55;;;-0.10;99.90;;;;;;5018108;28;20052;-81
2023/01/21 01:58:27;;;;;;;49.25;27.75;;;-0.50;99.90;;;;;;5035802;28;20501;-81
2023/01/21 02:00:52;;;;;;;48.58;28.63;;;-0.50;99.90;;;;;;5053703;28;20142;-80
2023/01/21 02:06:02;;;;;;;52.95;29.27;;;-0.50;99.90;;;;;;5053227;28;20140;-81
2023/01/21 02:08:28;;;;;;;49.85;28.33;;;-0.50;99.90;;;;;;5035468;28;20175;-80
2023/01/21 02:10:55;;;;;;;48.72;28.90;;;-0.60;99.90;;;;;;5035256;28;20051;-81
2023/01/21 02:13:26;;;;;;;48.75;28.98;;;-0.50;99.90;;;;;;5035271;28;20059;-81
2023/01/21 02:16:33;;;;;;;53.50;29.52;;;-0.50;99.90;;;;;;5042774;28;20438;-81
2023/01/21 02:19:01;;;;;;;;;;;-0.60;99.90;;;;;;5038350;28;20057;-81
2023/01/21 02:22:17;;;;;;;54.75;31.30;;;-0.60;99.90;;;;;;5015503;28;19944;-81
2023/01/21 02:24:49;;;;;;;50.40;29.35;;;-0.60;99.90;;;;;;4965991;28;20043;-81
2023/01/21 02:27:23;;;;;;;50.45;29.90;;;-0.60;99.90;;;;;;4954480;28;20414;-81
2023/01/21 02:30:32;;;;;;;57.25;31.30;;;-0.60;99.90;;;;;;5004807;28;20049;-81
2023/01/21 02:33:01;;;;;;;53.08;30.85;;;-0.60;99.90;;;;;;5035173;28;20044;-81
2023/01/21 02:35:50;;;;;;;50.45;30.13;;;-0.60;99.90;;;;;;5053296;28;20071;-81
2023/01/21 02:38:39;;;;;;;54.35;31.02;;;-0.60;99.90;;;;;;5024996;28;20057;-81
2023/01/21 02:41:17;;;;;;;51.70;31.00;;;-0.60;99.90;;;;;;5035487;28;20044;-81
2023/01/21 02:43:56;;;;;;;52.17;29.52;;;-0.60;99.90;;;;;;5015341;28;20042;-81
2023/01/21 02:46:32;;;;;;;56.90;30.63;;;-0.70;99.90;;;;;;5015689;28;20046;-81
2023/01/21 02:49:11;;;;;;;56.30;32.08;;;-0.70;99.90;;;;;;5046761;28;20531;-81
2023/01/21 02:51:37;;;;;;;57.08;31.05;;;-0.70;99.90;;;;;;5035770;28;20040;-81
2023/01/21 02:54:37;;;;;;;57.80;32.63;;;1.10;99.90;;;;;;5034894;28;20051;-81
2023/01/21 02:57:07;;;;;;;54.17;30.35;;;-0.60;99.90;;;;;;5009233;28;20060;-81
2023/01/21 02:59:33;;;;;;;53.75;30.83;;;-0.60;99.90;;;;;;5014646;28;20033;-80
2023/01/21 03:02:36;;;;;;;54.90;31.15;;;-0.10;99.90;;;;;;5043270;28;20049;-81
2023/01/21 03:05:48;;;;;;;55.58;31.23;;;-0.70;99.90;;;;;;5052330;28;20049;-81
2023/01/21 03:08:26;;;;;;;54.15;30.02;;;-0.60;99.90;;;;;;5014511;28;20474;-81
2023/01/21 03:11:02;;;;;;;56.97;30.60;;;-0.60;99.90;;;;;;5043048;28;20059;-81
2023/01/21 03:19:11;;;;;;;57.25;31.83;;;-0.50;99.90;;;;;;5019804;28;20062;-81
2023/01/21 03:21:38;;;;;;;54.17;30.27;;;-0.50;99.90;;;;;;5016558;28;20048;-81
2023/01/21 03:24:05;;;;;;;53.85;30.48;;;-0.50;99.90;;;;;;5030567;28;20049;-81
2023/01/21 03:26:43;;;;;;;53.35;30.25;;;-0.50;99.90;;;;;;5043248;28;20085;-81
2023/01/21 03:29:13;;;;;;;53.75;30.45;;;-0.50;99.90;;;;;;5036756;28;20045;-81
2023/01/21 03:31:42;;;;;;;53.45;31.75;;;-0.50;99.90;;;;;;5055395;28;20056;-81
2023/01/21 03:34:12;;;;;;;53.42;30.83;;;-0.40;99.90;;;;;;5038711;28;20095;-81
2023/01/21 03:36:50;;;;;;;57.67;32.08;;;-0.40;99.90;;;;;;5057014;28;20045;-81
2023/01/21 03:39:24;;;;;;;54.92;31.33;;;-0.30;99.90;;;;;;5038535;28;20099;-81
2023/01/21 03:41:50;;;;;;;53.05;30.48;;;-0.30;99.90;;;;;;5054787;28;20041;-81
2023/01/21 03:44:16;;;;;;;51.72;30.55;;;-0.30;99.90;;;;;;5002222;28;20414;-81
2023/01/21 03:46:52;;;;;;;59.15;30.55;;;-0.30;99.90;;;;;;5018786;28;20045;-81
2023/01/21 03:49:24;;;;;;;51.28;30.52;;;-0.30;99.90;;;;;;5035049;28;20370;-81
2023/01/21 03:51:54;;;;;;;54.42;30.48;;;-0.30;99.90;;;;;;5055481;28;20041;-80
2023/01/21 03:54:19;;;;;;;52.13;30.02;;;1.00;99.90;;;;;;5055617;28;20051;-81
2023/01/21 03:56:45;;;;;;;50.97;31.05;;;-0.20;99.90;;;;;;5037420;28;20116;-81
2023/01/21 03:59:11;;;;;;;53.13;30.90;;;-0.20;99.90;;;;;;5055742;28;20045;-81
2023/01/21 04:01:38;;;;;;;54.97;31.83;;;-0.10;99.90;;;;;;5038035;28;20107;-81
2023/01/21 04:04:04;;;;;;;49.72;29.77;;;-0.10;99.90;;;;;;5055751;28;20053;-81
2023/01/21 04:06:30;;;;;;;56.15;31.25;;;0.00;99.90;;;;;;5055875;28;20052;-81
2023/01/21 04:08:55;;;;;;;52.67;29.73;;;0.90;99.90;;;;;;5045183;28;20033;-80
2023/01/21 04:11:21;;;;;;;51.83;29.85;;;0.50;99.90;;;;;;5019844;28;20049;-81
2023/01/21 04:13:47;;;;;;;49.88;29.55;;;0.10;99.90;;;;;;5018300;28;20045;-81
2023/01/21 04:16:12;;;;;;;51.35;30.05;;;0.10;99.90;;;;;;5036914;28;20046;-81
2023/01/21 04:18:38;;;;;;;50.35;30.02;;;1.30;99.90;;;;;;5036199;28;20080;-80
2023/01/21 04:21:04;;;;;;;50.88;29.02;;;0.10;99.90;;;;;;5045181;28;20126;-81
2023/01/21 04:23:29;;;;;;;51.28;29.58;;;2.00;99.90;;;;;;5055016;28;20539;-80
2023/01/21 04:25:55;;;;;;;49.67;29.88;;;1.00;99.90;;;;;;5054057;28;20469;-81
2023/01/21 04:28:21;;;;;;;49.13;28.48;;;-0.30;99.90;;;;;;5055391;28;20057;-81
2023/01/21 04:30:47;;;;;;;51.22;29.05;;;0.10;99.90;;;;;;5037304;28;20044;-81
2023/01/21 04:33:13;;;;;;;50.15;28.63;;;0.30;99.90;;;;;;5054709;28;20045;-81
2023/01/21 04:35:38;;;;;;;51.03;29.63;;;0.10;99.90;;;;;;5025483;28;20552;-81
2023/01/21 04:38:05;;;;;;;52.80;29.30;;;0.20;99.90;;;;;;5038125;28;20041;-81
2023/01/21 04:40:31;;;;;;;52.28;29.92;;;0.10;99.90;;;;;;5046809;28;20050;-81
2023/01/21 04:42:56;;;;;;;51.28;29.25;;;0.10;99.90;;;;;;5015426;28;20080;-81
2023/01/21 04:45:22;;;;;;;52.63;28.80;;;0.10;99.90;;;;;;5033271;28;20490;-81
2023/01/21 04:47:48;;;;;;;48.25;27.90;;;0.10;99.90;;;;;;5004945;28;20037;-81
2023/01/21 04:50:15;;;;;;;47.35;27.95;;;0.10;99.90;;;;;;5037517;28;20087;-81
2023/01/21 04:52:41;;;;;;;48.20;28.45;;;0.10;99.90;;;;;;5036929;28;20047;-76
2023/01/21 04:55:08;;;;;;;55.38;29.98;;;1.30;99.90;;;;;;5036085;28;20086;-81
2023/01/21 04:57:34;;;;;;;52.45;29.73;;;0.20;99.90;;;;;;5053353;28;20091;-81
2023/01/21 05:00:00;;;;;;;49.25;28.67;;;0.30;99.90;;;;;;5037143;28;20045;-82
2023/01/21 05:02:26;;;;;;;50.17;28.85;;;0.20;99.90;;;;;;5019978;28;20049;-82
2023/01/21 05:04:52;;;;;;;53.15;30.88;;;0.20;99.90;;;;;;5035156;28;20037;-82
2023/01/21 05:07:17;;;;;;;51.03;29.67;;;0.30;99.90;;;;;;5035204;28;20223;-82
2023/01/21 05:09:43;;;;;;;51.85;29.23;;;0.30;99.90;;;;;;5035011;28;20041;-82
2023/01/21 05:12:08;;;;;;;53.13;30.15;;;0.30;99.90;;;;;;5050265;28;20045;-81
2023/01/21 05:14:34;;;;;;;47.60;28.30;;;0.30;99.90;;;;;;5052799;28;20046;-82
2023/01/21 05:17:01;;;;;;;52.58;28.90;;;0.40;99.90;;;;;;5034074;28;20056;-82
2023/01/21 05:19:27;;;;;;;49.45;28.90;;;0.40;99.90;;;;;;5027350;28;20106;-82
2023/01/21 05:21:52;;;;;;;50.90;30.77;;;-0.20;99.90;;;;;;5055121;28;20555;-82
2023/01/21 05:24:18;;;;;;;53.08;29.65;;;0.40;99.90;;;;;;5019826;28;20124;-82
2023/01/21 05:26:44;;;;;;;45.30;27.73;;;0.30;99.90;;;;;;5040891;28;20043;-82
2023/01/21 05:29:10;;;;;;;48.25;27.27;;;1.60;99.90;;;;;;5054014;28;20045;-82
2023/01/21 05:31:36;;;;;;;51.22;28.55;;;0.30;99.90;;;;;;5054496;28;20409;-82
2023/01/21 05:34:02;;;;;;;54.45;29.55;;;0.30;99.90;;;;;;5036330;28;20053;-82
2023/01/21 05:36:27;;;;;;;48.60;28.02;;;0.20;99.90;;;;;;5036918;28;20056;-82
2023/01/21 05:38:53;;;;;;;48.00;28.70;;;0.20;99.90;;;;;;5036348;28;20037;-82
2023/01/21 05:41:19;;;;;;;53.65;29.73;;;0.20;99.90;;;;;;5054576;28;20502;-82
2023/01/21 05:43:45;;;;;;;54.70;30.38;;;0.10;99.90;;;;;;5027445;28;20137;-82
2023/01/21 05:46:11;;;;;;;49.25;28.08;;;0.10;99.90;;;;;;5034275;28;20509;-82
2023/01/21 05:48:36;;;;;;;50.15;29.05;;;0.10;99.90;;;;;;5034102;28;20056;-82
2023/01/21 05:51:02;;;;;;;51.17;28.60;;;0.10;99.90;;;;;;5034598;28;20088;-82
2023/01/21 05:53:28;;;;;;;51.67;28.90;;;0.10;99.90;;;;;;5034092;28;20041;-78
2023/01/21 05:55:54;;;;;;;48.70;28.90;;;1.60;99.90;;;;;;5016389;28;20076;-82
2023/01/21 05:58:21;;;;;;;47.78;28.92;;;0.60;99.90;;;;;;5011577;28;20093;-83
2023/01/21 06:00:47;;;;;;;50.60;28.45;;;0.10;99.90;;;;;;5049115;28;20043;-82
2023/01/21 06:03:14;;;;;;;52.08;29.48;;;-0.10;99.90;;;;;;5053768;28;20124;-82
2023/01/21 06:05:43;;;;;;;51.22;28.50;;;-0.10;99.90;;;;;;5036031;28;20041;-82
2023/01/21 06:08:09;;;;;;;49.78;29.00;;;-0.20;99.90;;;;;;5036017;28;20056;-82
2023/01/21 06:10:35;;;;;;;52.58;30.60;;;-0.20;99.90;;;;;;5053651;28;20489;-82
2023/01/21 06:13:01;;;;;;;50.17;29.55;;;-0.20;99.90;;;;;;5051826;28;20392;-82
2023/01/21 06:15:27;;;;;;;50.85;29.15;;;-0.20;99.90;;;;;;5021585;28;20100;-82
2023/01/21 06:17:54;;;;;;;50.95;29.63;;;-0.20;99.90;;;;;;5015965;28;20045;-82
2023/01/21 06:20:20;;;;;;;49.90;28.55;;;-0.10;99.90;;;;;;5010151;28;20101;-82
2023/01/21 06:22:45;;;;;;;51.88;28.65;;;-0.20;99.90;;;;;;5053339;28;20136;-83
2023/01/21 06:25:11;;;;;;;53.85;30.42;;;1.10;99.90;;;;;;5034426;28;20116;-82
2023/01/21 06:27:37;;;;;;;56.17;29.77;;;-0.30;99.90;;;;;;5017974;28;20053;-82
2023/01/21 06:30:05;;;;;;;49.83;29.05;;;-0.30;99.90;;;;;;5035559;28;20386;-82
2023/01/21 06:32:30;;;;;;;57.38;30.42;;;-0.30;99.90;;;;;;5053602;28;20456;-82
2023/01/21 06:34:56;;;;;;;55.78;29.98;;;-0.30;99.90;;;;;;5018049;28;20087;-82
2023/01/21 06:37:22;;;;;;;57.25;30.67;;;-0.30;99.90;;;;;;5035583;28;20114;-82
2023/01/21 06:39:47;;;;;;;55.58;31.60;;;1.00;99.90;;;;;;5053489;28;20047;-82
2023/01/21 06:42:13;;;;;;;57.45;31.90;;;-0.30;99.90;;;;;;5053662;28;20040;-82
2023/01/21 06:44:39;;;;;;;58.28;32.58;;;-0.40;99.90;;;;;;5035390;28;20094;-82
2023/01/21 06:47:04;;;;;;;53.70;31.10;;;-0.40;99.90;;;;;;5039516;28;20041;-82
2023/01/21 06:49:30;;;;;;;56.33;31.90;;;-0.40;99.90;;;;;;5013715;28;20081;-82
2023/01/21 06:51:55;;;;;;;54.40;31.25;;;-0.40;99.90;;;;;;5033829;28;20507;-82
2023/01/21 06:54:21;;;;;;;56.00;30.60;;;1.00;99.90;;;;;;5030585;28;20079;-82
2023/01/21 06:56:47;;;;;;;57.47;32.03;;;-0.50;99.90;;;;;;5053572;28;20401;-82
2023/01/21 06:59:12;;;;;;;50.75;30.98;;;-0.50;99.90;;;;;;5053041;28;20098;-82
2023/01/21 07:01:38;;;;;;;57.42;31.88;;;-0.50;99.90;;;;;;5035308;28;20052;-82
2023/01/21 07:04:04;;;;;;;61.40;33.30;;;-0.50;99.90;;;;;;5034773;28;20120;-82
2023/01/21 07:06:29;;;;;;;56.78;30.00;;;-0.60;99.90;;;;;;5035500;28;20469;-82
2023/01/21 07:08:55;;;;;;;57.65;31.13;;;-0.60;99.90;;;;;;5033366;28;20049;-82
2023/01/21 07:11:21;;;;;;;57.63;31.13;;;-0.60;99.90;;;;;;5052904;28;20151;-82
2023/01/21 07:13:46;;;;;;;57.67;31.17;;;-0.60;99.90;;;;;;5052488;28;20053;-82
2023/01/21 07:16:12;;;;;;;57.63;31.27;;;-0.70;99.90;;;;;;5035108;28;20091;-82
2023/01/21 07:18:37;;;;;;;53.78;30.55;;;-0.60;99.90;;;;;;5034271;28;20076;-81
2023/01/21 07:21:03;;;;;;;60.00;32.30;;;-0.70;99.90;;;;;;5018542;28;20048;-82
2023/01/21 07:23:29;;;;;;;56.53;31.02;;;-0.70;99.90;;;;;;5041961;28;20041;-82
2023/01/21 07:25:55;;;;;;;54.88;31.05;;;-0.70;99.90;;;;;;5052598;28;20036;-82
2023/01/21 07:28:20;;;;;;;54.30;30.60;;;-0.80;99.90;;;;;;5053069;28;20037;-82
2023/01/21 07:30:46;;;;;;;59.47;32.20;;;-0.20;99.90;;;;;;5052841;28;20045;-82
2023/01/21 07:33:12;;;;;;;57.35;32.25;;;-0.70;99.90;;;;;;5052527;28;20051;-82
2023/01/21 07:35:37;;;;;;;55.08;31.20;;;-0.70;99.90;;;;;;5051302;28;20130;-81
2023/01/21 07:38:03;;;;;;;57.28;31.52;;;-0.70;99.90;;;;;;5014372;28;20114;-82
2023/01/21 07:40:29;;;;;;;58.30;32.65;;;-0.70;99.90;;;;;;5052744;28;20052;-81
2023/01/21 07:42:55;;;;;;;61.78;31.98;;;-0.70;99.90;;;;;;5033658;28;20052;-81
2023/01/21 07:45:22;;;;;;;58.70;32.55;;;-0.60;99.90;;;;;;5050460;28;20044;-82
2023/01/21 07:47:48;;;;;;;55.17;33.20;;;-0.70;99.90;;;;;;5048325;28;20042;-82
2023/01/21 07:50:14;;;;;;;58.92;32.38;;;-0.70;99.90;;;;;;5027271;28;20052;-81
2023/01/21 07:52:40;;;;;;;59.35;32.03;;;-0.70;99.90;;;;;;5049912;28;20490;-80
2023/01/21 07:55:07;;;;;;;59.30;33.08;;;-0.30;99.90;;;;;;5015048;28;20057;-82
2023/01/21 07:57:32;;;;;;;54.90;32.10;;;-0.60;99.90;;;;;;5019815;28;20036;-82
2023/01/21 07:59:58;;;;;;;61.03;32.08;;;-0.60;99.90;;;;;;5052353;28;20106;-81
2023/01/21 08:02:24;;;;;;;59.47;32.80;;;-0.60;99.90;;;;;;5052473;28;20125;-81
2023/01/21 08:04:50;;;;;;;58.25;32.92;;;-0.60;99.90;;;;;;5034468;28;20045;-82
2023/01/21 08:07:15;;;;;;;61.00;31.45;;;-0.60;99.90;;;;;;5050796;28;20090;-82
2023/01/21 08:09:41;;;;;;;53.75;29.70;;;-0.60;99.90;;;;;;5052197;28;20456;-81
2023/01/21 08:12:08;;;;;;;57.08;31.08;;;-0.60;99.90;;;;;;5052323;28;20044;-81
2023/01/21 08:14:34;;;;;;;51.67;30.80;;;-0.60;99.90;;;;;;5035626;28;20048;-81
2023/01/21 08:17:00;;;;;;;57.10;31.42;;;-0.60;99.90;;;;;;5054396;28;20045;-82
2023/01/21 08:19:26;;;;;;;55.50;31.85;;;0.30;99.90;;;;;;5055785;28;20091;-81
2023/01/21 08:21:52;;;;;;;59.05;31.75;;;-0.60;99.90;;;;;;5038068;28;20079;-81
2023/01/21 08:24:17;;;;;;;58.28;31.63;;;-0.50;99.90;;;;;;5045370;28;20650;-81
2023/01/21 08:26:44;;;;;;;57.20;32.63;;;-0.50;99.90;;;;;;5037287;28;20081;-82
2023/01/21 08:29:10;;;;;;;54.90;31.60;;;-0.50;99.90;;;;;;5021807;28;20088;-82
2023/01/21 08:31:36;;;;;;;56.35;31.75;;;-0.40;99.90;;;;;;5038020;28;20049;-82
2023/01/21 08:34:02;;;;;;;55.33;31.40;;;-0.40;99.90;;;;;;5052450;28;20052;-82
2023/01/21 08:36:28;;;;;;;58.92;32.28;;;-0.40;99.90;;;;;;5052482;28;20134;-82
2023/01/21 08:38:54;;;;;;;56.42;32.53;;;-0.30;99.90;;;;;;5046260;28;20088;-82
2023/01/21 08:41:21;;;;;;;57.97;32.08;;;-0.20;99.90;;;;;;5035596;28;20057;-82
2023/01/21 08:43:46;;;;;;;54.30;30.00;;;-0.20;99.90;;;;;;5048823;28;20120;-82
2023/01/21 08:46:13;;;;;;;55.13;30.67;;;0.00;99.90;;;;;;5055353;28;20202;-82
2023/01/21 08:48:38;;;;;;;57.67;31.60;;;0.10;99.90;;;;;;5029625;28;20045;-81
2023/01/21 08:51:04;;;;;;;54.25;30.33;;;0.20;99.90;;;;;;5036947;28;20045;-81
2023/01/21 08:53:31;;;;;;;53.50;30.10;;;0.30;99.90;;;;;;5029021;28;20482;-82
2023/01/21 08:56:01;;;;;;;53.83;29.45;;;0.40;99.90;;;;;;5055251;28;20040;-82
2023/01/21 08:58:28;;;;;;;50.13;27.92;;;0.40;99.90;;;;;;5055288;28;20064;-81
2023/01/21 09:00:54;;;;;;;49.33;27.55;;;0.50;99.90;;;;;;5053702;28;20441;-81
2023/01/21 09:03:19;;;;;;;52.08;28.90;;;0.60;99.90;;;;;;5043401;28;20103;-81
2023/01/21 09:05:50;;;;;;;47.63;27.13;;;0.80;99.90;;;;;;5037279;28;20041;-81
2023/01/21 09:08:17;;;;;;;47.50;26.05;;;1.00;99.90;;;;;;5004803;28;20053;-81
2023/01/21 09:11:00;;;;;;;46.42;26.15;;;1.20;99.90;;;;;;5000797;28;20048;-81
2023/01/21 09:13:34;;;;;;;43.55;25.00;;;1.70;99.90;;;;;;5034633;28;20046;-81
2023/01/21 09:16:00;;;;;;;44.60;24.90;;;1.60;99.90;;;;;;5017092;28;20087;-81
2023/01/21 09:18:26;;;;;;;45.63;24.83;;;1.70;99.90;;;;;;5034848;28;20498;-81
2023/01/21 09:20:52;;;;;;;40.75;22.50;;;2.80;99.90;;;;;;5053037;28;20508;-81
2023/01/21 09:23:24;;;;;;;43.10;24.38;;;1.80;99.90;;;;;;5036940;28;20045;-81
2023/01/21 09:25:50;;;;;;;42.70;23.23;;;1.90;99.90;;;;;;5036039;28;20061;-81
2023/01/21 09:28:17;;;;;;;41.35;23.25;;;2.00;99.90;;;;;;5034832;28;20041;-81
2023/01/21 09:30:43;;;;;;;43.25;23.30;;;3.20;99.90;;;;;;5035051;28;20037;-82
2023/01/21 09:33:08;;;;;;;37.10;22.38;;;2.20;99.90;;;;;;5054294;28;20041;-82
2023/01/21 09:35:34;;;;;;;38.33;21.17;;;2.30;99.90;;;;;;5054308;28;20045;-81
2023/01/21 09:37:59;;;;;;;34.03;20.08;;;2.40;99.90;;;;;;5034073;28;20090;-82
2023/01/21 09:40:25;;;;;;;36.85;20.95;;;2.60;99.90;;;;;;5049220;28;20045;-82
2023/01/21 09:42:51;;;;;;;36.70;21.67;;;2.80;99.90;;;;;;5026267;28;20100;-81
2023/01/21 09:45:18;;;;;;;32.33;19.30;;;3.30;99.90;;;;;;5036492;28;20045;-81
2023/01/21 09:47:47;;;;;;;30.98;17.95;;;3.70;99.90;;;;;;5014024;28;20068;-82
2023/01/21 09:50:18;;;;;;;29.40;18.05;;;5.50;99.90;;;;;;5016429;28;20052;-81
2023/01/21 09:52:44;;;;;;;29.10;17.25;;;;;;;;;;5000618;28;20056;-81
2023/01/21 09:55:15;;;;;;;26.15;16.42;;;;;;;;;;5013614;28;20354;-80
2023/01/21 09:58:00;;;;;;;25.52;15.50;;;;;;;;;;5045750;28;20056;-83
2023/01/21 10:00:35;;;;;;;23.77;14.80;;;;;;;;;;5033756;28;20102;-82
2023/01/21 10:03:03;;;;;;;23.48;15.68;;;;;;;;;;5030470;28;20056;-80
2023/01/21 10:05:38;;;;;;;24.67;15.27;;;;;;;;;;5034028;28;20049;-80
2023/01/21 10:08:10;;;;;;;25.67;16.05;;;;;;;;;;4999631;28;20637;-80
2023/01/21 10:10:39;;;;;;;26.48;16.70;;;;;;;;;;5016154;28;20048;-80
2023/01/21 10:13:19;;;;;;;27.38;16.00;;;;;;;;;;5033323;28;20049;-78
2023/01/21 10:16:04;;;;;;;26.92;15.35;;;;;;;;;;5016271;28;20049;-78
2023/01/21 10:18:31;;;;;;;25.58;15.80;;;;;;;;;;5019557;28;20048;-80
2023/01/21 10:20:58;;;;;;;23.33;14.57;;;;;;;;;;5045895;28;20444;-80
2023/01/21 10:23:32;;;;;;;21.30;13.98;;;;;;;;;;5047607;28;20124;-79
2023/01/21 10:26:01;;;;;;;22.30;15.20;;;;;;;;;;5033608;28;20060;-78
2023/01/21 10:28:29;;;;;;;26.23;15.38;;;;;;;;;;5049709;28;20369;-80
2023/01/21 10:30:58;;;;;;;22.55;14.88;;;;;;;;;;5050413;28;20041;-73
2023/01/21 10:33:25;;;;;;;21.55;14.00;;;;;;;;;;5047832;28;20056;-74
2023/01/21 10:35:59;;;;;;;18.55;12.98;;;;;;;;;;5049240;28;20041;-73
2023/01/21 10:38:31;;;;;;;19.50;13.00;;;;;;;;;;5049999;28;20116;-74
2023/01/21 10:40:57;;;;;;;17.70;12.57;;;;;;;;;;5045441;28;20048;-75
2023/01/21 10:43:29;;;;;;;20.17;13.63;;;;;;;;;;5049398;28;20049;-78
2023/01/21 10:46:04;;;;;;;20.55;13.95;;;;;;;;;;5032466;28;20048;-78
2023/01/21 10:48:43;;;;;;;18.48;13.43;;;;;;;;;;5028167;28;20039;-75
2023/01/21 10:51:12;;;;;;;17.70;13.63;;;;;;;;;;5004631;28;20405;-74
2023/01/21 10:53:42;;;;;;;20.20;14.35;;;;;;;;;;5017770;28;20045;-75
2023/01/21 10:56:16;;;;;;;20.38;14.02;;;;;;;;;;5032313;28;20037;-77
2023/01/21 10:58:48;;;;;;;18.20;12.82;;;;;;;;;;5027427;28;20052;-79
2023/01/21 11:01:22;;;;;;;17.50;13.10;;;;;;;;;;5041323;28;20053;-79
2023/01/21 11:03:50;;;;;;;17.85;12.88;;;;;;;;;;5039122;28;20041;-79
2023/01/21 11:06:18;;;;;;;17.40;12.55;;;5.50;99.90;;;;;;5047401;28;20051;-79
2023/01/21 11:08:48;;;;;;;17.70;12.75;;;17.30;97.30;;;;;;5050571;28;20437;-79
2023/01/21 11:11:25;;;;;;;16.25;12.32;;;17.90;95.90;;;;;;5034035;28;20098;-79
2023/01/21 11:13:51;;;;;;;18.35;13.02;;;18.70;95.00;;;;;;5033960;28;20075;-79
2023/01/21 11:16:30;;;;;;;14.75;11.40;;;19.40;92.80;;;;;;5034865;28;20048;-79
2023/01/21 11:18:56;;;;;;;15.50;11.20;;;20.10;92.10;;;;;;5050489;28;20041;-79
2023/01/21 11:21:24;;;;;;;16.00;11.60;;;20.50;91.20;;;;;;5017302;28;20049;-79
2023/01/21 11:24:19;;;;;;;14.30;11.25;;;20.50;90.90;;;;;;5034129;28;20478;-79
2023/01/21 11:26:52;;;;;;;14.52;11.10;;;20.40;91.20;;;;;;5034701;28;20424;-79
2023/01/21 11:29:20;;;;;;;14.45;10.25;;;21.90;90.40;;;;;;5050996;28;20095;-79
2023/01/21 11:32:04;;;;;;;15.32;11.25;;;23.50;85.50;;;;;;5031680;28;20052;-79
2023/01/21 11:34:30;;;;;;;13.48;10.77;;;24.90;82.00;;;;;;5050537;28;20033;-79
2023/01/21 11:37:07;;;;;;;13.30;10.57;;;25.80;77.90;;;;;;5043594;28;20041;-79
2023/01/21 11:39:35;;;;;;;12.30;9.65;;;26.50;73.90;;;;;;5018409;28;20077;-79
2023/01/21 11:42:16;;;;;;;11.60;9.05;;;26.60;70.40;;;;;;5032361;28;20046;-79
2023/01/21 11:44:53;;;;;;;9.65;8.00;;;26.20;68.70;;;;;;5016118;28;20053;-80
2023/01/21 11:47:30;;;;;;;10.57;8.00;;;;;;;;;;5014608;28;20438;-79
2023/01/21 11:50:01;;;;;;;10.95;8.98;;;;;;;;;;5034525;28;20045;-79
2023/01/21 11:52:27;;;;;;;10.27;8.25;;;;;;;;;;5035973;28;20041;-78
2023/01/21 11:54:53;;;;;;;10.43;7.97;;;;;;;;;;5030290;28;20055;-79
2023/01/21 11:57:19;;;;;;;10.85;7.85;;;;;;;;;;5053176;28;20041;-79
2023/01/21 11:59:46;;;;;;;9.50;7.65;;;;;;;;;;5047606;28;20120;-79
2023/01/21 12:02:24;;;;;;;9.90;7.75;;;;;;;;;;5045872;28;20042;-79
2023/01/21 12:04:56;;;;;;;9.77;7.45;;;;;;;;;;5036238;28;20465;-79
2023/01/21 12:07:25;;;;;;;9.60;7.07;;;;;;;;;;5055689;28;20128;-79
2023/01/21 12:09:58;;;;;;;8.82;6.80;;;;;;;;;;5055690;28;20084;-79
2023/01/21 12:12:27;;;;;;;8.40;6.65;;;;;;;;;;5050570;28;20046;-79
2023/01/21 12:14:54;;;;;;;8.02;5.90;;;;;;;;;;5029595;28;20139;-79
2023/01/21 12:17:26;;;;;;;6.90;5.68;;;;;;;;;;5035459;28;20049;-79
2023/01/21 12:19:52;;;;;;;8.30;5.82;;;;;;;;;;5020865;28;20048;-79
2023/01/21 12:22:44;;;;;;;6.15;4.60;;;26.70;67.50;;;;;;5019782;28;20049;-79
2023/01/21 12:25:39;;;;;;;6.82;4.88;;;29.70;54.50;;;;;;5052977;28;20401;-79
2023/01/21 12:28:05;;;;;;;6.65;4.97;;;;;;;;;;5025572;28;20114;-79
2023/01/21 12:30:51;;;;;;;6.10;4.78;;;;;;;;;;5046304;28;20045;-79
2023/01/21 12:33:17;;;;;;;;;;;;;;;;;;5054117;28;20124;-79
2023/01/21 12:35:55;;;;;;;7.25;5.22;;;28.80;55.00;;;;;;5053999;28;19971;-79
2023/01/21 12:38:26;;;;;;;6.22;4.88;;;30.30;54.90;;;;;;5049951;28;20502;-80
2023/01/21 12:40:56;;;;;;;6.60;4.82;;;30.50;52.70;;;;;;5050246;28;20451;-80
2023/01/21 12:43:28;;;;;;;5.22;3.80;;;30.50;52.30;;;;;;5054640;28;20045;-80
2023/01/21 12:46:09;;;;;;;5.47;3.97;;;;;;;;;;5036609;28;20045;-80
2023/01/21 12:48:45;;;;;;;4.20;3.20;;;30.00;50.10;;;;;;5051959;28;20048;-79
2023/01/21 12:51:14;;;;;;;4.70;3.28;;;;;;;;;;5020567;28;20570;-79
2023/01/21 12:53:43;;;;;;;5.40;3.65;;;;;;;;;;5045189;28;20045;-79
2023/01/21 12:56:12;;;;;;;5.18;3.30;;;;;;;;;;5054708;28;20041;-80
2023/01/21 12:58:42;;;;;;;7.43;4.10;;;;;;;;;;5027166;28;20037;-79
2023/01/21 13:01:35;;;;;;;5.22;3.90;;;28.20;50.70;;;;;;5015735;28;20570;-80
2023/01/21 13:04:12;;;;;;;6.82;4.60;;;;;;;;;;5016826;28;20068;-79
2023/01/21 13:06:43;;;;;;;7.70;4.72;;;;;;;;;;5037917;28;20447;-77
2023/01/21 13:09:19;;;;;;;5.82;4.28;;;;;;;;;;5040967;28;20041;-79